createdAt,value
2023-05-15T00:00:44.585Z,46.45
2023-05-15T00:03:12.461Z,46.41
2023-05-15T00:05:39.862Z,46.59
2023-05-15T00:08:06.583Z,46.62
2023-05-15T00:10:33.313Z,46.64
2023-05-15T00:13:00.009Z,46.75
2023-05-15T00:15:27.019Z,46.76
2023-05-15T00:17:54.269Z,46.75
2023-05-15T00:20:21.150Z,46.95
2023-05-15T00:22:47.977Z,47.05
2023-05-15T00:25:15.302Z,47.27
2023-05-15T00:27:42.215Z,47.25
2023-05-15T00:30:09.582Z,47.35
2023-05-15T00:32:36.306Z,47.48
2023-05-15T00:35:03.237Z,47.62
2023-05-15T00:37:31.345Z,47.71
2023-05-15T00:39:58.074Z,47.83
2023-05-15T00:42:25.471Z,47.97
2023-05-15T00:44:52.687Z,47.93
2023-05-15T00:47:21.164Z,48.10
2023-05-15T00:49:48.428Z,48.25
2023-05-15T00:52:15.489Z,48.37
2023-05-15T00:54:42.479Z,48.41
2023-05-15T00:57:09.726Z,48.53
2023-05-15T00:59:36.635Z,48.55
2023-05-15T01:02:04.247Z,48.67
2023-05-15T01:04:31.444Z,48.74
2023-05-15T01:06:58.442Z,48.78
2023-05-15T01:09:27.788Z,48.98
2023-05-15T01:11:55.051Z,49.03
2023-05-15T01:14:21.976Z,49.18
2023-05-15T01:16:48.855Z,49.42
2023-05-15T01:19:15.785Z,49.44
2023-05-15T01:22:01.239Z,49.52
2023-05-15T01:25:03.751Z,49.70
2023-05-15T01:27:36.413Z,49.83
2023-05-15T01:30:12.531Z,49.87
2023-05-15T01:33:08.812Z,49.97
2023-05-15T01:35:44.183Z,50.06
2023-05-15T01:38:39.532Z,50.24
2023-05-15T01:41:10.109Z,50.33
2023-05-15T01:43:39.246Z,50.52
2023-05-15T01:46:08.141Z,50.60
2023-05-15T01:48:36.649Z,50.65
2023-05-15T01:51:04.014Z,50.80
2023-05-15T01:53:32.439Z,50.79
2023-05-15T01:55:59.451Z,50.92
2023-05-15T01:58:27.115Z,51.01
2023-05-15T02:00:54.077Z,51.04
2023-05-15T02:03:21.351Z,51.12
2023-05-15T02:05:48.660Z,51.23
2023-05-15T02:08:16.849Z,51.29
2023-05-15T02:10:44.036Z,51.38
2023-05-15T02:13:11.364Z,51.45
2023-05-15T02:15:38.232Z,51.43
2023-05-15T02:18:05.429Z,51.54
2023-05-15T02:20:32.754Z,51.69
2023-05-15T02:22:59.476Z,51.75
2023-05-15T02:26:08.058Z,51.85
2023-05-15T02:28:48.520Z,51.89
2023-05-15T02:31:21.744Z,51.96
2023-05-15T02:33:59.268Z,52.01
2023-05-15T02:36:30.995Z,52.19
2023-05-15T02:38:57.741Z,52.28
2023-05-15T02:41:24.567Z,52.34
2023-05-15T02:43:52.364Z,52.40
2023-05-15T02:46:20.168Z,52.45
2023-05-15T02:48:47.450Z,52.53
2023-05-15T02:51:14.349Z,52.52
2023-05-15T02:53:41.722Z,52.61
2023-05-15T02:56:08.904Z,52.66
2023-05-15T02:58:35.682Z,52.77
2023-05-15T03:01:02.601Z,52.95
2023-05-15T03:03:29.421Z,53.04
2023-05-15T03:05:56.180Z,53.26
2023-05-15T03:08:23.028Z,53.41
2023-05-15T03:10:50.093Z,53.61
2023-05-15T03:13:16.859Z,53.67
2023-05-15T03:15:45.470Z,53.70
2023-05-15T03:18:12.600Z,53.93
2023-05-15T03:20:39.368Z,54.01
2023-05-15T03:23:06.174Z,54.04
2023-05-15T03:25:32.968Z,54.24
2023-05-15T03:27:59.962Z,54.41
2023-05-15T03:30:26.786Z,54.51
2023-05-15T03:32:53.662Z,54.78
2023-05-15T03:35:20.689Z,54.87
2023-05-15T03:37:47.610Z,54.97
2023-05-15T03:40:14.599Z,55.21
2023-05-15T03:42:41.451Z,55.16
2023-05-15T03:45:08.881Z,55.42
2023-05-15T03:47:35.729Z,55.56
2023-05-15T03:50:02.512Z,55.61
2023-05-15T03:52:33.309Z,55.71
2023-05-15T03:55:00.061Z,55.77
2023-05-15T03:57:27.274Z,55.80
2023-05-15T03:59:54.259Z,55.87
2023-05-15T04:02:21.176Z,55.84
2023-05-15T04:04:48.072Z,55.80
2023-05-15T04:07:14.946Z,55.83
2023-05-15T04:09:42.908Z,55.80
2023-05-15T04:12:09.940Z,55.88
2023-05-15T04:14:36.667Z,55.96
2023-05-15T04:17:03.523Z,56.08
2023-05-15T04:19:30.477Z,56.11
2023-05-15T04:21:57.210Z,56.07
2023-05-15T04:24:24.007Z,56.25
2023-05-15T04:26:50.902Z,56.17
2023-05-15T04:29:17.773Z,56.18
2023-05-15T04:31:44.694Z,56.24
2023-05-15T04:34:11.555Z,56.19
2023-05-15T04:38:30.368Z,56.34
2023-05-15T04:40:57.134Z,56.33
2023-05-15T04:43:23.886Z,56.26
2023-05-15T04:45:50.867Z,56.31
2023-05-15T04:48:19.230Z,56.14
2023-05-15T04:50:45.971Z,56.24
2023-05-15T04:53:12.786Z,56.25
2023-05-15T04:55:39.831Z,56.33
2023-05-15T04:58:06.704Z,56.25
2023-05-15T05:00:33.519Z,56.22
2023-05-15T05:03:00.435Z,56.21
2023-05-15T05:05:27.728Z,56.19
2023-05-15T05:07:54.585Z,55.97
2023-05-15T05:10:21.493Z,55.79
2023-05-15T05:12:48.243Z,55.64
2023-05-15T05:15:15.254Z,55.48
2023-05-15T05:17:42.319Z,55.49
2023-05-15T05:20:12.651Z,55.22
2023-05-15T05:22:41.071Z,55.08
2023-05-15T05:25:08.176Z,54.96
2023-05-15T05:27:34.902Z,54.83
2023-05-15T05:30:02.221Z,54.60
2023-05-15T05:32:29.151Z,54.61
2023-05-15T05:34:56.128Z,54.63
2023-05-15T05:37:23.201Z,54.40
2023-05-15T05:39:49.922Z,54.28
2023-05-15T05:42:16.740Z,54.22
2023-05-15T05:44:43.561Z,54.26
2023-05-15T05:47:10.360Z,54.12
2023-05-15T05:49:37.444Z,53.98
2023-05-15T05:52:08.206Z,53.72
2023-05-15T05:54:35.006Z,53.56
2023-05-15T05:57:01.757Z,53.70
2023-05-15T05:59:29.697Z,53.70
2023-05-15T06:01:56.624Z,53.64
2023-05-15T06:04:23.465Z,53.69
2023-05-15T06:06:50.504Z,53.60
2023-05-15T06:09:18.152Z,53.74
2023-05-15T06:11:45.563Z,53.83
2023-05-15T06:14:12.629Z,53.72
2023-05-15T06:16:39.698Z,53.46
2023-05-15T06:19:06.716Z,53.50
2023-05-15T06:21:33.990Z,53.72
2023-05-15T06:24:00.869Z,53.66
2023-05-15T06:26:27.651Z,53.74
2023-05-15T06:28:54.382Z,53.77
2023-05-15T06:31:21.599Z,53.79
2023-05-15T06:33:48.453Z,53.85
2023-05-15T06:36:15.929Z,53.80
2023-05-15T06:38:42.766Z,53.74
2023-05-15T06:41:09.598Z,53.64
2023-05-15T06:43:38.374Z,53.71
2023-05-15T06:46:05.492Z,53.79
2023-05-15T06:48:32.379Z,53.90
2023-05-15T06:50:59.116Z,53.83
2023-05-15T06:53:25.992Z,53.79
2023-05-15T06:55:52.836Z,53.61
2023-05-15T06:58:19.790Z,53.56
2023-05-15T07:00:46.570Z,53.60
2023-05-15T07:03:14.586Z,53.72
2023-05-15T07:05:41.386Z,53.65
2023-05-15T07:08:08.233Z,53.76
2023-05-15T07:10:35.000Z,53.65
2023-05-15T07:13:01.893Z,53.71
2023-05-15T07:15:28.775Z,53.70
2023-05-15T07:17:55.891Z,53.76
2023-05-15T07:20:23.785Z,53.86
2023-05-15T07:22:56.478Z,54.00
2023-05-15T07:25:25.042Z,53.98
2023-05-15T07:27:52.487Z,53.76
2023-05-15T07:30:19.325Z,53.16
2023-05-15T07:32:46.243Z,52.33
2023-05-15T07:35:12.990Z,51.97
2023-05-15T07:37:39.793Z,51.59
2023-05-15T07:40:07.815Z,51.22
2023-05-15T07:42:34.634Z,51.26
2023-05-15T07:45:01.402Z,51.23
2023-05-15T07:47:28.238Z,50.81
2023-05-15T07:49:55.102Z,50.72
2023-05-15T07:52:22.142Z,50.47
2023-05-15T07:54:49.528Z,50.19
2023-05-15T07:57:16.301Z,50.10
2023-05-15T07:59:43.107Z,49.88
2023-05-15T08:02:09.914Z,49.34
2023-05-15T08:04:36.694Z,48.84
2023-05-15T08:07:04.753Z,48.50
2023-05-15T08:09:31.452Z,48.30
2023-05-15T08:12:03.840Z,48.12
2023-05-15T08:14:30.757Z,47.84
2023-05-15T08:16:57.855Z,47.60
2023-05-15T08:19:25.063Z,47.54
2023-05-15T08:21:51.897Z,47.46
2023-05-15T08:24:18.789Z,47.47
2023-05-15T08:26:45.671Z,47.57
2023-05-15T08:29:12.595Z,47.50
2023-05-15T08:31:39.338Z,47.43
2023-05-15T08:34:06.181Z,47.02
2023-05-15T08:36:33.913Z,47.04
2023-05-15T08:39:00.730Z,47.02
2023-05-15T08:41:40.994Z,46.87
2023-05-15T08:44:09.376Z,46.97
2023-05-15T08:46:36.446Z,46.98
2023-05-15T08:49:12.151Z,47.14
2023-05-15T08:51:39.026Z,47.21
2023-05-15T08:54:05.815Z,46.93
2023-05-15T08:56:32.703Z,46.66
2023-05-15T08:58:59.583Z,46.55
2023-05-15T09:01:26.372Z,46.37
2023-05-15T09:03:53.217Z,46.49
2023-05-15T09:06:20.057Z,46.47
2023-05-15T09:08:47.046Z,46.61
2023-05-15T09:11:14.207Z,46.77
2023-05-15T09:13:40.963Z,46.77
2023-05-15T09:16:08.130Z,46.61
2023-05-15T09:18:35.027Z,46.48
2023-05-15T09:21:25.561Z,46.42
2023-05-15T09:23:53.600Z,46.46
2023-05-15T09:26:21.893Z,46.27
2023-05-15T09:28:48.861Z,46.11
2023-05-15T09:31:19.568Z,45.73
2023-05-15T09:33:46.407Z,45.03
2023-05-15T09:36:13.301Z,44.40
2023-05-15T09:38:42.502Z,44.02
2023-05-15T09:41:09.618Z,44.14
2023-05-15T09:43:40.597Z,44.31
2023-05-15T09:46:08.657Z,44.24
2023-05-15T09:48:35.993Z,43.84
2023-05-15T09:51:04.698Z,43.71
2023-05-15T09:53:31.900Z,43.68
2023-05-15T09:55:58.715Z,43.91
2023-05-15T09:58:25.652Z,44.04
2023-05-15T10:00:52.444Z,43.98
2023-05-15T10:03:22.588Z,43.86
2023-05-15T10:05:49.889Z,43.82
2023-05-15T10:08:20.331Z,43.67
2023-05-15T10:10:47.237Z,43.77
2023-05-15T10:13:14.300Z,44.00
2023-05-15T10:15:41.243Z,43.62
2023-05-15T10:18:08.348Z,43.64
2023-05-15T10:20:38.116Z,43.66
2023-05-15T10:23:06.014Z,43.73
2023-05-15T10:25:42.390Z,43.64
2023-05-15T10:28:10.378Z,43.62
2023-05-15T10:30:37.621Z,43.49
2023-05-15T10:33:04.948Z,43.21
2023-05-15T10:35:31.836Z,42.74
2023-05-15T10:37:58.791Z,42.81
2023-05-15T10:40:25.794Z,42.79
2023-05-15T10:42:52.967Z,42.47
2023-05-15T10:45:20.067Z,42.44
2023-05-15T10:47:46.865Z,42.53
2023-05-15T10:50:14.377Z,42.71
2023-05-15T10:52:41.824Z,42.75
2023-05-15T10:55:09.708Z,43.01
2023-05-15T10:57:37.946Z,43.08
2023-05-15T11:00:19.714Z,43.39
2023-05-15T11:02:46.690Z,43.51
2023-05-15T11:05:14.430Z,43.43
2023-05-15T11:07:41.450Z,43.12
2023-05-15T11:10:27.904Z,42.95
2023-05-15T11:12:55.949Z,42.90
2023-05-15T11:15:23.137Z,43.01
2023-05-15T11:18:10.923Z,42.90
2023-05-15T11:20:39.483Z,42.95
2023-05-15T11:23:06.583Z,42.89
2023-05-15T11:25:34.650Z,42.51
2023-05-15T11:28:02.908Z,42.26
2023-05-15T11:30:39.725Z,42.03
2023-05-15T11:33:12.946Z,42.06
2023-05-15T11:35:45.865Z,42.03
2023-05-15T11:38:17.417Z,41.87
2023-05-15T11:40:52.804Z,42.00
2023-05-15T11:43:25.049Z,42.12
2023-05-15T11:46:00.022Z,42.23
2023-05-15T11:48:41.452Z,42.27
2023-05-15T11:51:19.511Z,42.22
2023-05-15T11:53:46.538Z,42.33
2023-05-15T11:56:18.429Z,42.25
2023-05-15T11:58:47.823Z,42.17
2023-05-15T12:01:14.520Z,41.92
2023-05-15T12:03:41.407Z,41.80
2023-05-15T12:06:08.512Z,41.91
2023-05-15T12:08:36.329Z,41.98
2023-05-15T12:11:04.022Z,41.86
2023-05-15T12:13:31.847Z,41.87
2023-05-15T12:15:59.233Z,42.02
2023-05-15T12:18:26.794Z,42.32
2023-05-15T12:20:53.961Z,42.51
2023-05-15T12:23:21.878Z,42.91
2023-05-15T12:25:49.624Z,43.14
2023-05-15T12:28:16.457Z,43.37
2023-05-15T12:30:43.251Z,43.43
2023-05-15T12:33:10.678Z,43.51
2023-05-15T12:35:44.637Z,43.81
2023-05-15T12:38:16.309Z,43.93
2023-05-15T12:40:43.908Z,44.21
2023-05-15T12:43:11.093Z,44.26
2023-05-15T12:45:38.753Z,44.43
2023-05-15T12:48:07.446Z,44.47
2023-05-15T12:50:35.042Z,44.60
2023-05-15T12:53:03.152Z,44.85
2023-05-15T12:55:34.324Z,45.00
2023-05-15T12:58:08.219Z,45.16
2023-05-15T13:00:36.457Z,45.23
2023-05-15T13:03:03.561Z,45.47
2023-05-15T13:05:34.297Z,45.62
2023-05-15T13:08:02.734Z,45.75
2023-05-15T13:10:32.130Z,45.93
2023-05-15T13:12:59.010Z,46.17
2023-05-15T13:15:52.161Z,46.42
2023-05-15T13:18:18.969Z,46.60
2023-05-15T13:20:51.751Z,46.90
2023-05-15T13:23:20.552Z,47.02
2023-05-15T13:25:47.380Z,47.18
2023-05-15T13:28:14.313Z,47.18
2023-05-15T13:30:44.139Z,47.28
2023-05-15T13:33:11.933Z,47.28
2023-05-15T13:35:39.252Z,47.30
2023-05-15T13:38:07.047Z,47.35
2023-05-15T13:40:37.991Z,47.58
2023-05-15T13:43:06.840Z,47.75
2023-05-15T13:45:34.173Z,47.81
2023-05-15T13:48:02.688Z,47.97
2023-05-15T13:50:30.196Z,48.16
2023-05-15T13:52:57.565Z,48.18
2023-05-15T13:55:26.178Z,48.21
2023-05-15T13:57:55.138Z,48.28
2023-05-15T14:00:22.260Z,48.37
2023-05-15T14:02:49.352Z,48.43
2023-05-15T14:05:17.845Z,48.35
2023-05-15T14:07:47.597Z,48.26
2023-05-15T14:10:14.571Z,48.26
2023-05-15T14:12:44.745Z,48.40
2023-05-15T14:15:12.119Z,48.43
2023-05-15T14:17:39.624Z,48.55
2023-05-15T14:20:07.523Z,48.64
2023-05-15T14:22:34.591Z,48.74
2023-05-15T14:25:04.048Z,48.91
2023-05-15T14:27:31.389Z,48.95
2023-05-15T14:29:58.641Z,49.20
2023-05-15T14:32:25.845Z,49.33
2023-05-15T14:34:52.863Z,49.54
2023-05-15T14:37:19.941Z,49.82
2023-05-15T14:39:47.108Z,50.13
2023-05-15T14:42:14.102Z,50.37
2023-05-15T14:44:41.139Z,50.71
2023-05-15T14:47:20.277Z,50.95
2023-05-15T14:49:47.395Z,51.12
2023-05-15T14:52:14.272Z,51.27
2023-05-15T14:54:41.003Z,51.35
2023-05-15T14:57:08.080Z,51.60
2023-05-15T14:59:35.067Z,52.25
2023-05-15T15:02:02.081Z,52.77
2023-05-15T15:04:34.007Z,53.60
2023-05-15T15:07:04.526Z,54.31
2023-05-15T15:09:31.404Z,54.85
2023-05-15T15:11:58.126Z,55.76
2023-05-15T15:14:24.901Z,56.69
2023-05-15T15:16:51.885Z,57.53
2023-05-15T15:19:20.499Z,58.31
2023-05-15T15:21:47.868Z,59.27
2023-05-15T15:24:16.339Z,60.04
2023-05-15T15:26:46.723Z,61.22
2023-05-15T15:29:13.440Z,62.82
2023-05-15T15:31:40.212Z,64.12
2023-05-15T15:34:08.916Z,65.33
2023-05-15T15:36:39.684Z,66.75
2023-05-15T15:39:06.513Z,68.11
2023-05-15T15:41:37.819Z,69.86
2023-05-15T15:44:08.226Z,71.34
2023-05-15T15:46:39.124Z,73.64
2023-05-15T15:49:07.682Z,75.40
2023-05-15T15:51:34.601Z,77.28
2023-05-15T15:54:01.629Z,79.50
2023-05-15T15:56:28.360Z,82.18
2023-05-15T15:58:55.118Z,84.68
2023-05-15T16:01:22.573Z,87.35
2023-05-15T16:03:49.717Z,90.28
2023-05-15T16:06:16.766Z,93.23
2023-05-15T16:08:44.686Z,95.59
2023-05-15T16:11:13.256Z,97.53
2023-05-15T16:13:41.283Z,99.03
2023-05-15T16:16:09.124Z,99.99
2023-05-15T16:18:36.172Z,100.00
2023-05-15T16:21:03.069Z,100.00
2023-05-15T16:23:34.995Z,100.00
2023-05-15T16:26:04.086Z,100.00
2023-05-15T16:28:32.670Z,100.00
2023-05-15T16:31:00.989Z,100.00
2023-05-15T16:33:28.368Z,100.00
2023-05-15T16:35:57.139Z,100.00
2023-05-15T16:38:25.204Z,100.00
2023-05-15T16:40:54.835Z,100.00
2023-05-15T16:43:24.435Z,100.00
2023-05-15T16:45:53.641Z,100.00
2023-05-15T16:48:23.210Z,100.00
2023-05-15T16:50:49.989Z,100.00
2023-05-15T16:55:20.579Z,100.00
2023-05-15T16:57:49.109Z,100.00
2023-05-15T17:00:22.006Z,100.00
2023-05-15T17:02:52.213Z,99.78
2023-05-15T17:05:20.824Z,97.34
2023-05-15T17:07:49.254Z,95.24
2023-05-15T17:10:17.120Z,93.99
2023-05-15T17:12:45.266Z,93.30
2023-05-15T17:15:13.564Z,93.39
2023-05-15T17:17:41.966Z,93.85
2023-05-15T17:20:16.760Z,93.65
2023-05-15T17:22:44.482Z,94.11
2023-05-15T17:25:13.600Z,94.30
2023-05-15T17:27:51.709Z,94.60
2023-05-15T17:30:26.861Z,94.16
2023-05-15T17:32:56.177Z,93.34
2023-05-15T17:35:24.495Z,92.92
2023-05-15T17:37:52.280Z,93.02
2023-05-15T17:40:20.138Z,93.15
2023-05-15T17:42:47.876Z,92.94
2023-05-15T17:45:15.319Z,92.65
2023-05-15T17:47:44.632Z,92.98
2023-05-15T17:50:12.072Z,93.44
2023-05-15T17:52:39.374Z,93.27
2023-05-15T17:55:07.242Z,92.57
2023-05-15T17:57:42.189Z,92.05
2023-05-15T18:00:10.522Z,91.91
2023-05-15T18:02:42.527Z,91.88
2023-05-15T18:05:10.730Z,91.71
2023-05-15T18:07:38.027Z,91.48
2023-05-15T18:10:06.684Z,91.50
2023-05-15T18:12:36.368Z,91.45
2023-05-15T18:15:05.833Z,91.37
2023-05-15T18:17:33.145Z,91.48
2023-05-15T18:20:00.049Z,91.67
2023-05-15T18:22:27.116Z,91.90
2023-05-15T18:24:54.820Z,91.90
2023-05-15T18:27:25.710Z,92.39
2023-05-15T18:29:52.931Z,92.85
2023-05-15T18:32:19.660Z,93.43
2023-05-15T18:34:49.400Z,93.69
2023-05-15T18:37:16.190Z,94.23
2023-05-15T18:39:44.436Z,94.71
2023-05-15T18:42:11.215Z,95.31
2023-05-15T18:44:37.973Z,95.71
2023-05-15T18:47:05.160Z,96.23
2023-05-15T18:49:32.137Z,97.66
2023-05-15T18:51:58.974Z,98.35
2023-05-15T18:54:26.321Z,98.92
2023-05-15T18:56:53.173Z,99.77
2023-05-15T18:59:20.086Z,100.00
2023-05-15T19:01:48.830Z,100.00
2023-05-15T19:04:15.684Z,100.00
2023-05-15T19:06:43.617Z,100.00
2023-05-15T19:09:10.324Z,100.00
2023-05-15T19:11:37.034Z,100.00
2023-05-15T19:14:03.791Z,100.00
2023-05-15T19:16:30.530Z,100.00
2023-05-15T19:18:57.342Z,100.00
2023-05-15T19:21:24.318Z,100.00
2023-05-15T19:23:51.214Z,100.00
2023-05-15T19:26:18.122Z,100.00
2023-05-15T19:28:44.994Z,100.00
2023-05-15T19:31:20.376Z,100.00
2023-05-15T19:33:54.688Z,100.00
2023-05-15T19:36:22.352Z,100.00
2023-05-15T19:38:49.063Z,100.00
2023-05-15T19:41:15.858Z,100.00
2023-05-15T19:43:46.407Z,100.00
2023-05-15T19:46:13.667Z,100.00
2023-05-15T19:48:41.247Z,100.00
2023-05-15T19:51:08.098Z,100.00
2023-05-15T19:53:36.695Z,100.00
2023-05-15T19:56:04.018Z,100.00
2023-05-15T19:58:31.424Z,100.00
2023-05-15T20:00:58.493Z,100.00
2023-05-15T20:03:33.004Z,100.00
2023-05-15T20:06:01.453Z,100.00
2023-05-15T20:08:28.699Z,100.00
2023-05-15T20:10:55.667Z,100.00
2023-05-15T20:13:22.576Z,100.00
2023-05-15T20:16:00.057Z,100.00
2023-05-15T20:18:27.913Z,100.00
2023-05-15T20:20:55.320Z,100.00
2023-05-15T20:23:22.175Z,100.00
2023-05-15T20:25:49.698Z,100.00
2023-05-15T20:28:17.787Z,100.00
2023-05-15T20:30:47.444Z,100.00
2023-05-15T20:33:14.598Z,100.00
2023-05-15T20:35:43.625Z,100.00
2023-05-15T20:38:11.928Z,100.00
2023-05-15T20:40:38.931Z,100.00
2023-05-15T20:43:05.848Z,100.00
2023-05-15T20:45:33.019Z,100.00
2023-05-15T20:48:00.023Z,100.00
2023-05-15T20:50:27.123Z,100.00
2023-05-15T20:52:54.551Z,100.00
2023-05-15T20:55:21.755Z,100.00
2023-05-15T20:57:48.917Z,100.00
2023-05-15T21:00:16.946Z,100.00
2023-05-15T21:02:44.483Z,100.00
2023-05-15T21:05:11.309Z,100.00
2023-05-15T21:07:38.140Z,100.00
2023-05-15T21:10:06.510Z,100.00
2023-05-15T21:12:34.172Z,100.00
2023-05-15T21:15:02.083Z,100.00
2023-05-15T21:17:29.082Z,100.00
2023-05-15T21:19:57.720Z,100.00
2023-05-15T21:22:24.795Z,100.00
2023-05-15T21:24:51.829Z,100.00
2023-05-15T21:27:18.695Z,100.00
2023-05-15T21:29:45.518Z,100.00
2023-05-15T21:32:12.266Z,100.00
2023-05-15T21:34:39.396Z,100.00
2023-05-15T21:37:06.133Z,100.00
2023-05-15T21:39:32.841Z,100.00
2023-05-15T21:41:59.608Z,100.00
2023-05-15T21:44:26.938Z,100.00
2023-05-15T21:46:53.923Z,100.00
2023-05-15T21:49:20.897Z,100.00
2023-05-15T21:51:47.605Z,100.00
2023-05-15T21:54:14.439Z,100.00
2023-05-15T21:56:41.212Z,100.00
2023-05-15T21:59:08.178Z,100.00
2023-05-15T22:01:36.318Z,100.00
2023-05-15T22:04:04.216Z,100.00
2023-05-15T22:06:31.825Z,100.00
2023-05-15T22:08:58.829Z,100.00
2023-05-15T22:11:25.783Z,100.00
2023-05-15T22:13:52.525Z,100.00
2023-05-15T22:16:19.548Z,100.00
2023-05-15T22:18:47.536Z,100.00
2023-05-15T22:21:15.376Z,100.00
2023-05-15T22:23:43.054Z,100.00
2023-05-15T22:26:09.888Z,100.00
2023-05-15T22:28:36.772Z,100.00
2023-05-15T22:31:04.451Z,100.00
2023-05-15T22:33:31.184Z,100.00
2023-05-15T22:35:57.934Z,100.00
2023-05-15T22:38:24.724Z,100.00
2023-05-15T22:40:52.555Z,100.00
2023-05-15T22:43:19.487Z,100.00
2023-05-15T22:45:46.708Z,100.00
2023-05-15T22:48:15.972Z,100.00
2023-05-15T22:50:44.046Z,100.00
2023-05-15T22:53:10.846Z,100.00
2023-05-15T22:55:37.669Z,100.00
2023-05-15T22:58:04.588Z,100.00
2023-05-15T23:00:31.461Z,100.00
2023-05-15T23:02:58.357Z,100.00
2023-05-15T23:05:25.356Z,100.00
2023-05-15T23:07:52.696Z,100.00
2023-05-15T23:10:19.629Z,100.00
2023-05-15T23:12:46.850Z,100.00
2023-05-15T23:15:13.601Z,100.00
2023-05-15T23:17:40.594Z,100.00
2023-05-15T23:20:10.628Z,100.00
2023-05-15T23:22:37.421Z,100.00
2023-05-15T23:25:04.796Z,100.00
2023-05-15T23:27:31.625Z,100.00
2023-05-15T23:29:58.793Z,100.00
2023-05-15T23:32:25.649Z,100.00
2023-05-15T23:34:53.056Z,100.00
2023-05-15T23:37:19.786Z,100.00
2023-05-15T23:39:47.488Z,100.00
2023-05-15T23:42:14.766Z,100.00
2023-05-15T23:44:41.526Z,100.00
2023-05-15T23:47:08.415Z,100.00
2023-05-15T23:49:35.787Z,100.00
2023-05-15T23:52:02.562Z,100.00
2023-05-15T23:54:29.476Z,100.00
2023-05-15T23:56:56.291Z,100.00
2023-05-15T23:59:23.140Z,100.00
